Terminal Aerodrome Forecast
Issued by NWS

Home | Current Version | Previous Version | Text Only | Print | Product List | Glossary On
Versions: 1 2 3 4 5 6 7 8 9 10 11 12 13 14 15 16
000
FTUS45 KRIW 060500
TAFLND
TAF
KLND 060529Z 0606/0706 16010KT P6SM VCSH BKN060
     FM061200 31006KT P6SM -RA BKN030
     FM061500 36008KT 5SM -RA BR OVC016
     FM062300 31005KT P6SM VCSH BKN030=

USA.gov is the U.S. government's official web portal to all federal, state and local government web resources and services.